createdAt,value
2019-03-19T00:00:02.818Z,20.90
2019-03-19T00:02:32.025Z,21.47
2019-03-19T00:05:01.187Z,20.37
2019-03-19T00:07:30.341Z,19.50
2019-03-19T00:09:59.546Z,20.77
2019-03-19T00:12:28.678Z,19.40
2019-03-19T00:14:57.871Z,19.87
2019-03-19T00:17:27.017Z,16.97
2019-03-19T00:19:56.174Z,15.93
2019-03-19T00:22:25.872Z,16.53
2019-03-19T00:24:55.439Z,18.40
2019-03-19T00:27:24.577Z,18.60
2019-03-19T00:29:53.786Z,18.70
2019-03-19T00:32:23.009Z,19.00
2019-03-19T00:34:52.162Z,18.33
2019-03-19T00:37:21.338Z,19.70
2019-03-19T00:39:50.494Z,19.80
2019-03-19T00:42:19.809Z,18.60
2019-03-19T00:44:49.002Z,18.83
2019-03-19T00:47:18.154Z,19.80
2019-03-19T00:49:47.314Z,18.83
2019-03-19T00:52:16.613Z,18.67
2019-03-19T00:54:45.907Z,17.90
2019-03-19T00:57:15.049Z,17.57
2019-03-19T00:59:44.234Z,16.30
2019-03-19T01:02:13.467Z,15.97
2019-03-19T01:04:42.698Z,15.97
2019-03-19T01:07:11.911Z,17.17
2019-03-19T01:09:41.121Z,17.80
2019-03-19T01:12:10.267Z,17.67
2019-03-19T01:14:39.446Z,15.60
2019-03-19T01:17:08.674Z,16.53
2019-03-19T01:19:37.810Z,15.87
2019-03-19T01:22:06.985Z,16.27
2019-03-19T01:24:36.122Z,14.50
2019-03-19T01:27:05.280Z,15.50
2019-03-19T01:29:34.453Z,15.27
2019-03-19T01:32:03.663Z,16.43
2019-03-19T01:34:32.925Z,18.47
2019-03-19T01:37:02.151Z,20.83
2019-03-19T01:39:31.309Z,19.70
2019-03-19T01:42:00.632Z,19.73
2019-03-19T01:44:29.845Z,19.87
2019-03-19T01:46:59.100Z,20.73
2019-03-19T01:49:28.327Z,20.33
2019-03-19T01:51:57.473Z,20.03
2019-03-19T01:54:26.626Z,18.13
2019-03-19T01:56:55.803Z,18.50
2019-03-19T01:59:24.949Z,17.10
2019-03-19T02:01:54.088Z,16.70
2019-03-19T02:04:23.233Z,16.67
2019-03-19T02:06:52.457Z,16.60
2019-03-19T02:09:21.618Z,16.60
2019-03-19T02:11:50.785Z,15.97
2019-03-19T02:14:20.134Z,15.97
2019-03-19T02:16:49.291Z,15.67
2019-03-19T02:19:18.429Z,15.80
2019-03-19T02:21:47.598Z,15.63
2019-03-19T02:24:16.809Z,15.77
2019-03-19T02:26:45.960Z,16.07
2019-03-19T02:29:15.089Z,16.27
2019-03-19T02:31:44.337Z,16.97
2019-03-19T02:34:13.486Z,16.30
2019-03-19T02:36:42.648Z,15.57
2019-03-19T02:39:11.894Z,15.17
2019-03-19T02:41:41.147Z,15.00
2019-03-19T02:44:10.366Z,14.63
2019-03-19T02:46:39.528Z,15.40
2019-03-19T02:49:08.819Z,15.40
2019-03-19T02:51:38.017Z,15.80
2019-03-19T02:54:07.238Z,16.53
2019-03-19T02:56:36.378Z,15.90
2019-03-19T02:59:05.563Z,15.07
2019-03-19T03:01:34.829Z,17.10
2019-03-19T03:04:04.016Z,15.20
2019-03-19T03:06:33.173Z,15.47
2019-03-19T03:09:02.480Z,15.27
2019-03-19T03:11:31.643Z,14.23
2019-03-19T03:14:00.795Z,13.03
2019-03-19T03:16:29.997Z,13.53
2019-03-19T03:18:59.186Z,12.87
2019-03-19T03:21:28.375Z,11.87
2019-03-19T03:23:57.768Z,12.20
2019-03-19T03:26:27.034Z,12.00
2019-03-19T03:28:56.189Z,11.57
2019-03-19T03:31:25.421Z,12.93
2019-03-19T03:33:54.662Z,11.30
2019-03-19T03:36:23.915Z,11.00
2019-03-19T03:38:53.124Z,11.00
2019-03-19T03:41:22.265Z,12.13
2019-03-19T03:43:51.443Z,11.90
2019-03-19T03:46:20.608Z,12.30
2019-03-19T03:48:49.837Z,12.03
2019-03-19T03:51:18.974Z,11.70
2019-03-19T03:53:48.159Z,11.37
2019-03-19T03:56:17.767Z,12.30
2019-03-19T03:59:00.019Z,12.63
2019-03-19T04:01:17.874Z,13.13
2019-03-19T04:03:47.082Z,14.00
2019-03-19T04:06:16.370Z,13.03
2019-03-19T04:08:45.650Z,13.00
2019-03-19T04:11:15.425Z,13.10
2019-03-19T04:13:44.559Z,13.37
2019-03-19T04:16:13.779Z,13.57
2019-03-19T04:18:43.042Z,13.17
2019-03-19T04:21:12.257Z,13.23
2019-03-19T04:23:41.522Z,13.70
2019-03-19T04:26:10.683Z,13.57
2019-03-19T04:28:39.919Z,14.37
2019-03-19T04:31:09.093Z,14.83
2019-03-19T04:33:38.414Z,14.93
2019-03-19T04:36:07.623Z,14.47
2019-03-19T04:38:36.763Z,15.30
2019-03-19T04:41:05.983Z,15.20
2019-03-19T04:43:35.127Z,15.23
2019-03-19T04:46:04.310Z,16.47
2019-03-19T04:48:33.498Z,16.73
2019-03-19T04:51:02.722Z,15.13
2019-03-19T04:53:31.865Z,16.13
2019-03-19T04:56:01.028Z,15.97
2019-03-19T04:58:30.169Z,14.60
2019-03-19T05:00:59.442Z,14.97
2019-03-19T05:03:28.585Z,14.60
2019-03-19T05:05:59.572Z,14.83
2019-03-19T05:08:28.613Z,13.43
2019-03-19T05:10:57.750Z,13.77
2019-03-19T05:13:26.917Z,13.63
2019-03-19T05:15:56.056Z,15.30
2019-03-19T05:18:25.281Z,17.77
2019-03-19T05:20:54.442Z,14.90
2019-03-19T05:23:23.645Z,15.23
2019-03-19T05:25:52.803Z,14.20
2019-03-19T05:28:21.950Z,14.87
2019-03-19T05:30:51.125Z,14.90
2019-03-19T05:33:20.335Z,15.33
2019-03-19T05:35:49.467Z,14.20
2019-03-19T05:38:18.622Z,13.67
2019-03-19T05:40:47.800Z,14.07
2019-03-19T05:43:17.122Z,13.03
2019-03-19T05:45:46.512Z,12.97
2019-03-19T05:48:15.734Z,13.43
2019-03-19T05:50:45.049Z,12.10
2019-03-19T05:53:14.198Z,13.23
2019-03-19T05:55:43.345Z,11.73
2019-03-19T05:58:12.537Z,12.83
2019-03-19T06:00:41.750Z,12.23
2019-03-19T06:03:10.894Z,13.87
2019-03-19T06:05:40.095Z,14.97
2019-03-19T06:08:09.375Z,15.17
2019-03-19T06:10:38.546Z,15.57
2019-03-19T06:13:07.759Z,13.87
2019-03-19T06:15:36.913Z,13.30
2019-03-19T06:18:06.086Z,12.23
2019-03-19T06:20:35.264Z,12.53
2019-03-19T06:23:05.506Z,12.47
2019-03-19T06:25:34.747Z,12.90
2019-03-19T06:28:05.453Z,13.03
2019-03-19T06:30:34.640Z,11.60
2019-03-19T06:33:03.885Z,11.93
2019-03-19T06:35:33.074Z,13.23
2019-03-19T06:38:02.437Z,11.20
2019-03-19T06:40:31.581Z,13.73
2019-03-19T06:43:00.942Z,13.27
2019-03-19T06:45:30.110Z,12.47
2019-03-19T06:47:59.337Z,13.00
2019-03-19T06:50:28.514Z,11.30
2019-03-19T06:52:57.706Z,11.93
2019-03-19T06:55:27.003Z,12.30
2019-03-19T06:57:56.294Z,13.63
2019-03-19T07:00:25.739Z,13.07
2019-03-19T07:02:55.166Z,13.50
2019-03-19T07:05:24.352Z,12.13
2019-03-19T07:07:53.531Z,12.67
2019-03-19T07:10:22.763Z,12.13
2019-03-19T07:12:51.925Z,12.60
2019-03-19T07:15:21.172Z,11.30
2019-03-19T07:17:50.766Z,11.57
2019-03-19T07:20:23.119Z,11.67
2019-03-19T07:22:52.435Z,12.37
2019-03-19T07:25:21.610Z,9.93
2019-03-19T07:27:50.841Z,10.40
2019-03-19T07:30:24.877Z,9.63
2019-03-19T07:32:54.234Z,9.10
2019-03-19T07:35:24.790Z,9.43
2019-03-19T07:37:54.792Z,9.13
2019-03-19T07:40:24.597Z,10.07
2019-03-19T07:42:59.900Z,9.80
2019-03-19T07:45:32.332Z,9.60
2019-03-19T07:48:01.657Z,9.30
2019-03-19T07:50:31.240Z,8.90
2019-03-19T07:53:00.470Z,9.67
2019-03-19T07:55:30.315Z,7.70
2019-03-19T07:57:59.614Z,8.40
2019-03-19T08:00:29.202Z,6.50
2019-03-19T08:02:58.463Z,7.47
2019-03-19T08:05:32.916Z,7.20
2019-03-19T08:07:58.528Z,6.80
2019-03-19T08:10:27.681Z,6.47
2019-03-19T08:12:56.903Z,6.90
2019-03-19T08:15:26.079Z,6.30
2019-03-19T08:17:55.314Z,5.20
2019-03-19T08:20:24.557Z,4.80
2019-03-19T08:22:53.760Z,4.10
2019-03-19T08:25:22.547Z,4.23
2019-03-19T08:27:51.802Z,4.73
2019-03-19T08:30:20.937Z,4.37
2019-03-19T08:32:50.094Z,5.10
2019-03-19T08:35:19.222Z,6.53
2019-03-19T08:37:48.382Z,6.00
2019-03-19T08:40:20.020Z,5.90
2019-03-19T08:42:49.178Z,6.60
2019-03-19T08:45:18.442Z,7.43
2019-03-19T08:47:47.626Z,7.00
2019-03-19T08:50:17.212Z,6.33
2019-03-19T08:52:46.370Z,6.57
2019-03-19T08:55:16.692Z,6.93
2019-03-19T08:57:45.924Z,7.90
2019-03-19T09:00:16.897Z,6.50
2019-03-19T09:02:46.083Z,6.90
2019-03-19T09:05:16.912Z,6.77
2019-03-19T09:07:46.119Z,6.47
2019-03-19T09:10:15.304Z,5.93
2019-03-19T09:12:51.361Z,6.20
2019-03-19T09:15:20.701Z,5.33
2019-03-19T09:17:51.151Z,5.17
2019-03-19T09:20:21.396Z,4.60
2019-03-19T09:22:53.366Z,4.77
2019-03-19T09:25:22.789Z,5.00
2019-03-19T09:27:52.435Z,6.17
2019-03-19T09:30:21.945Z,5.83
2019-03-19T09:33:01.852Z,6.10
2019-03-19T09:35:31.105Z,5.53
2019-03-19T09:38:00.360Z,6.17
2019-03-19T09:40:29.919Z,6.33
2019-03-19T09:42:59.318Z,6.50
2019-03-19T09:45:28.732Z,7.03
2019-03-19T09:47:57.887Z,6.27
2019-03-19T09:50:27.309Z,5.57
2019-03-19T09:52:56.961Z,5.50
2019-03-19T09:55:26.660Z,5.20
2019-03-19T09:57:56.003Z,5.20
2019-03-19T10:00:25.718Z,4.00
2019-03-19T10:02:55.012Z,4.07
2019-03-19T10:05:24.417Z,3.63
2019-03-19T10:07:55.539Z,4.30
2019-03-19T10:10:24.727Z,4.00
2019-03-19T10:12:54.082Z,4.10
2019-03-19T10:15:24.056Z,7.10
2019-03-19T10:17:53.309Z,6.17
2019-03-19T10:20:22.773Z,5.43
2019-03-19T10:22:53.279Z,3.67
2019-03-19T10:25:22.461Z,3.60
2019-03-19T10:27:51.774Z,3.40
2019-03-19T10:30:20.950Z,4.33
2019-03-19T10:32:55.366Z,3.40
2019-03-19T10:35:24.689Z,3.23
2019-03-19T10:37:54.000Z,4.40
2019-03-19T10:40:23.217Z,4.60
2019-03-19T10:42:52.376Z,6.00
2019-03-19T10:45:21.947Z,5.10
2019-03-19T10:47:51.289Z,5.77
2019-03-19T10:50:20.643Z,4.37
2019-03-19T10:52:49.974Z,4.23
2019-03-19T10:55:19.406Z,4.10
2019-03-19T10:57:48.581Z,4.07
2019-03-19T11:00:21.794Z,4.43
2019-03-19T11:02:50.955Z,4.43
2019-03-19T11:05:20.359Z,4.50
2019-03-19T11:07:49.539Z,5.20
2019-03-19T11:10:19.030Z,5.53
2019-03-19T11:12:48.273Z,4.97
2019-03-19T11:15:19.001Z,4.93
2019-03-19T11:17:48.184Z,5.30
2019-03-19T11:20:17.628Z,4.67
2019-03-19T11:22:46.869Z,4.67
2019-03-19T11:25:17.706Z,5.47
2019-03-19T11:27:48.817Z,4.97
2019-03-19T11:30:20.235Z,5.83
2019-03-19T11:32:52.869Z,4.27
2019-03-19T11:35:25.757Z,4.70
2019-03-19T11:37:55.087Z,5.53
2019-03-19T11:40:25.784Z,4.03
2019-03-19T11:42:56.379Z,4.30
2019-03-19T11:45:25.680Z,4.87
2019-03-19T11:47:56.818Z,6.20
2019-03-19T11:50:26.123Z,6.00
2019-03-19T11:52:55.558Z,5.10
2019-03-19T11:55:24.790Z,4.10
2019-03-19T11:57:54.461Z,5.20
2019-03-19T12:00:30.997Z,5.23
2019-03-19T12:03:10.820Z,5.47
2019-03-19T12:05:30.486Z,5.37
2019-03-19T12:07:59.646Z,6.00
2019-03-19T12:10:28.973Z,4.93
2019-03-19T12:12:58.281Z,5.70
2019-03-19T12:15:27.545Z,4.70
2019-03-19T12:17:56.806Z,4.50
2019-03-19T12:20:26.117Z,4.60
2019-03-19T12:22:55.345Z,4.70
2019-03-19T12:25:24.551Z,5.07
2019-03-19T12:27:53.926Z,5.83
2019-03-19T12:30:26.130Z,4.50
2019-03-19T12:32:54.033Z,5.97
2019-03-19T12:35:23.889Z,5.67
2019-03-19T12:37:53.086Z,5.57
2019-03-19T12:40:22.261Z,5.67
2019-03-19T12:42:51.632Z,6.70
2019-03-19T12:45:20.982Z,6.30
2019-03-19T12:47:50.138Z,6.50
2019-03-19T12:50:19.690Z,7.73
2019-03-19T12:52:48.838Z,6.63
2019-03-19T12:55:18.037Z,7.77
2019-03-19T12:57:47.226Z,9.17
2019-03-19T13:00:18.117Z,6.97
2019-03-19T13:02:47.346Z,5.60
2019-03-19T13:05:16.675Z,5.80
2019-03-19T13:07:45.825Z,5.83
2019-03-19T13:10:19.630Z,5.97
2019-03-19T13:12:48.881Z,5.43
2019-03-19T13:15:19.261Z,5.50
2019-03-19T13:17:49.926Z,7.60
2019-03-19T13:20:19.226Z,24.20
2019-03-19T13:22:51.630Z,36.27
2019-03-19T13:25:20.890Z,12.07
2019-03-19T13:27:50.149Z,8.50
2019-03-19T13:30:19.921Z,6.93
2019-03-19T13:32:49.078Z,6.45
2019-03-19T13:35:18.302Z,6.03
2019-03-19T13:37:47.628Z,7.20
2019-03-19T13:40:17.533Z,5.27
2019-03-19T13:42:46.869Z,4.83
2019-03-19T13:45:16.120Z,4.37
2019-03-19T13:47:45.329Z,5.30
2019-03-19T13:50:15.395Z,4.90
2019-03-19T13:52:44.597Z,5.93
2019-03-19T13:55:15.234Z,4.80
2019-03-19T13:57:44.369Z,5.57
2019-03-19T14:00:14.319Z,5.17
2019-03-19T14:02:43.642Z,5.17
2019-03-19T14:05:13.063Z,4.47
2019-03-19T14:07:42.515Z,4.43
2019-03-19T14:10:12.039Z,4.50
2019-03-19T14:12:41.321Z,4.37
2019-03-19T14:15:12.828Z,4.30
2019-03-19T14:17:42.229Z,4.43
2019-03-19T14:20:13.214Z,4.23
2019-03-19T14:22:44.883Z,4.50
2019-03-19T14:25:13.681Z,4.20
2019-03-19T14:27:43.033Z,6.27
2019-03-19T14:30:14.704Z,4.20
2019-03-19T14:32:43.863Z,4.80
2019-03-19T14:35:13.262Z,6.43
2019-03-19T14:37:42.455Z,7.07
2019-03-19T14:40:13.049Z,6.23
2019-03-19T14:42:42.198Z,5.70
2019-03-19T14:45:11.577Z,4.30
2019-03-19T14:47:40.803Z,3.80
2019-03-19T14:50:11.161Z,4.70
2019-03-19T14:52:40.297Z,4.43
2019-03-19T14:55:09.840Z,4.30
2019-03-19T14:57:39.061Z,5.30
2019-03-19T15:00:11.026Z,5.00
2019-03-19T15:02:40.201Z,5.03
2019-03-19T15:05:10.169Z,5.83
2019-03-19T15:07:39.408Z,6.00
2019-03-19T15:10:11.033Z,9.23
2019-03-19T15:12:40.201Z,4.10
2019-03-19T15:15:10.390Z,4.30
2019-03-19T15:17:39.563Z,4.70
2019-03-19T15:20:11.039Z,4.47
2019-03-19T15:22:40.181Z,4.10
2019-03-19T15:25:09.533Z,3.87
2019-03-19T15:27:38.704Z,4.13
2019-03-19T15:30:08.507Z,4.13
2019-03-19T15:32:37.754Z,4.47
2019-03-19T15:35:08.163Z,5.63
2019-03-19T15:37:37.314Z,5.40
2019-03-19T15:40:07.915Z,6.50
2019-03-19T15:42:37.109Z,6.47
2019-03-19T15:45:07.110Z,6.47
2019-03-19T15:47:36.270Z,6.50
2019-03-19T15:50:06.162Z,6.40
2019-03-19T15:52:35.317Z,5.10
2019-03-19T15:55:04.791Z,4.80
2019-03-19T15:57:33.949Z,4.73
2019-03-19T16:00:03.170Z,4.70
2019-03-19T16:02:32.356Z,5.87
2019-03-19T16:05:01.566Z,7.33
2019-03-19T16:07:30.740Z,7.23
2019-03-19T16:10:00.048Z,5.33
2019-03-19T16:12:29.278Z,8.20
2019-03-19T16:14:58.457Z,6.97
2019-03-19T16:17:27.674Z,7.73
2019-03-19T16:19:56.830Z,8.70
2019-03-19T16:22:26.055Z,7.13
2019-03-19T16:24:55.202Z,8.50
2019-03-19T16:27:24.370Z,20.13
2019-03-19T16:29:53.526Z,12.80
2019-03-19T16:32:22.760Z,12.30
2019-03-19T16:34:52.106Z,14.67
2019-03-19T16:37:21.329Z,10.37
2019-03-19T16:39:50.497Z,7.57
2019-03-19T16:42:19.738Z,5.00
2019-03-19T16:44:49.075Z,5.80
2019-03-19T16:47:18.310Z,6.00
2019-03-19T16:49:47.558Z,8.10
2019-03-19T16:52:16.719Z,9.53
2019-03-19T16:54:45.866Z,7.87
2019-03-19T16:57:15.178Z,6.70
2019-03-19T16:59:44.326Z,7.13
2019-03-19T17:02:13.473Z,5.90
2019-03-19T17:04:42.649Z,7.83
2019-03-19T17:07:11.801Z,7.83
2019-03-19T17:09:40.946Z,10.83
2019-03-19T17:12:10.126Z,12.70
2019-03-19T17:14:39.262Z,12.60
2019-03-19T17:17:08.500Z,12.87
2019-03-19T17:19:37.734Z,16.70
2019-03-19T17:22:06.899Z,14.77
2019-03-19T17:24:36.146Z,12.30
2019-03-19T17:27:05.318Z,13.33
2019-03-19T17:29:34.459Z,14.70
2019-03-19T17:32:12.406Z,12.73
2019-03-19T17:34:34.489Z,17.07
2019-03-19T17:37:03.663Z,16.90
2019-03-19T17:39:32.799Z,19.93
2019-03-19T17:42:02.348Z,31.00
2019-03-19T17:44:31.577Z,50.67
2019-03-19T17:47:00.788Z,34.60
2019-03-19T17:49:30.020Z,22.53
2019-03-19T17:51:59.259Z,23.53
2019-03-19T17:54:27.865Z,21.07
2019-03-19T17:56:57.022Z,19.37
2019-03-19T17:59:26.166Z,20.30
2019-03-19T18:01:55.433Z,22.53
2019-03-19T18:04:24.597Z,23.13
2019-03-19T18:06:53.830Z,21.97
2019-03-19T18:09:23.010Z,21.10
2019-03-19T18:11:52.258Z,17.87
2019-03-19T18:14:21.507Z,17.60
2019-03-19T18:16:50.699Z,15.20
2019-03-19T18:19:19.262Z,16.73
2019-03-19T18:21:48.418Z,20.67
2019-03-19T18:24:17.589Z,25.83
2019-03-19T18:26:47.119Z,25.13
2019-03-19T18:29:16.402Z,32.97
2019-03-19T18:31:45.645Z,27.53
2019-03-19T18:34:14.982Z,25.23
2019-03-19T18:36:44.142Z,24.70
2019-03-19T18:39:13.301Z,22.57
2019-03-19T18:41:42.560Z,26.53
2019-03-19T18:44:11.729Z,25.83
2019-03-19T18:46:40.871Z,22.93
2019-03-19T18:49:09.507Z,25.20
2019-03-19T18:51:38.687Z,21.83
2019-03-19T18:54:07.325Z,23.43
2019-03-19T18:56:35.886Z,26.00
2019-03-19T18:59:05.049Z,33.60
2019-03-19T19:01:34.229Z,30.73
2019-03-19T19:04:02.957Z,31.23
2019-03-19T19:06:32.177Z,31.73
2019-03-19T19:09:00.742Z,26.83
2019-03-19T19:11:29.969Z,31.83
2019-03-19T19:13:58.540Z,30.33
2019-03-19T19:16:27.169Z,34.03
2019-03-19T19:18:56.321Z,30.90
2019-03-19T19:21:25.457Z,30.97
2019-03-19T19:23:54.189Z,31.27
2019-03-19T19:26:23.462Z,33.40
2019-03-19T19:28:52.033Z,38.53
2019-03-19T19:31:20.598Z,39.47
2019-03-19T19:33:49.207Z,37.70
2019-03-19T19:36:18.521Z,36.93
2019-03-19T19:38:47.658Z,37.10
2019-03-19T19:41:16.917Z,40.53
2019-03-19T19:43:46.129Z,40.77
2019-03-19T19:46:15.285Z,40.00
2019-03-19T19:48:44.511Z,35.53
2019-03-19T19:51:13.657Z,35.40
2019-03-19T19:53:42.808Z,34.53
2019-03-19T19:56:11.974Z,35.33
2019-03-19T19:58:41.129Z,32.13
2019-03-19T20:01:10.291Z,38.73
2019-03-19T20:03:39.532Z,47.00
2019-03-19T20:06:08.685Z,45.67
2019-03-19T20:08:39.971Z,45.23
2019-03-19T20:11:09.212Z,43.33
2019-03-19T20:13:38.354Z,44.87
2019-03-19T20:16:07.525Z,48.50
2019-03-19T20:18:36.700Z,49.97
2019-03-19T20:21:05.879Z,47.77
2019-03-19T20:23:35.121Z,47.53
2019-03-19T20:26:04.314Z,47.90
2019-03-19T20:28:33.003Z,49.80
2019-03-19T20:31:02.142Z,48.83
2019-03-19T20:33:31.417Z,47.03
2019-03-19T20:36:00.564Z,49.90
2019-03-19T20:38:29.755Z,51.70
2019-03-19T20:40:58.994Z,51.93
2019-03-19T20:43:28.205Z,53.57
2019-03-19T20:45:57.362Z,50.50
2019-03-19T20:48:26.546Z,46.17
2019-03-19T20:50:55.618Z,51.87
2019-03-19T20:53:24.318Z,49.10
2019-03-19T20:55:53.631Z,47.13
2019-03-19T20:58:22.883Z,51.50
2019-03-19T21:00:52.098Z,56.07
2019-03-19T21:03:21.245Z,49.20
2019-03-19T21:05:50.414Z,47.93
2019-03-19T21:08:19.046Z,49.70
2019-03-19T21:10:48.245Z,60.17
2019-03-19T21:13:17.490Z,57.63
2019-03-19T21:15:46.670Z,63.33
2019-03-19T21:18:15.245Z,64.87
2019-03-19T21:20:44.394Z,62.40
2019-03-19T21:23:13.570Z,62.23
2019-03-19T21:25:42.714Z,63.73
2019-03-19T21:28:14.308Z,58.87
2019-03-19T21:30:42.753Z,57.20
2019-03-19T21:33:11.906Z,58.37
2019-03-19T21:35:41.081Z,58.43
2019-03-19T21:38:09.717Z,62.83
2019-03-19T21:40:38.882Z,61.23
2019-03-19T21:43:07.614Z,61.00
2019-03-19T21:45:36.854Z,58.83
2019-03-19T21:48:05.473Z,62.87
2019-03-19T21:50:34.678Z,62.73
2019-03-19T21:53:03.880Z,70.67
2019-03-19T21:55:33.102Z,64.70
2019-03-19T21:58:01.761Z,67.70
2019-03-19T22:00:30.439Z,60.57
2019-03-19T22:02:59.018Z,60.43
2019-03-19T22:05:28.205Z,56.57
2019-03-19T22:07:57.463Z,66.03
2019-03-19T22:10:26.609Z,64.60
2019-03-19T22:12:55.802Z,74.73
2019-03-19T22:15:24.994Z,74.83
2019-03-19T22:17:54.144Z,68.67
2019-03-19T22:20:23.530Z,63.47
2019-03-19T22:22:52.754Z,58.27
2019-03-19T22:25:21.904Z,61.50
2019-03-19T22:27:51.065Z,65.70
2019-03-19T22:30:19.740Z,63.23
2019-03-19T22:32:48.919Z,78.07
2019-03-19T22:35:18.241Z,98.57
2019-03-19T22:37:47.637Z,108.03
2019-03-19T22:40:16.890Z,97.37
2019-03-19T22:42:46.106Z,89.57
2019-03-19T22:45:15.562Z,73.73
2019-03-19T22:47:44.770Z,65.47
2019-03-19T22:50:14.487Z,67.50
2019-03-19T22:52:43.629Z,72.07
2019-03-19T22:55:12.833Z,73.03
2019-03-19T22:57:42.023Z,73.20
2019-03-19T23:00:16.221Z,76.00
2019-03-19T23:02:45.514Z,95.17
2019-03-19T23:05:15.598Z,81.80
2019-03-19T23:07:44.744Z,96.63
2019-03-19T23:10:13.909Z,84.40
2019-03-19T23:12:43.142Z,82.17
2019-03-19T23:15:12.373Z,81.90
2019-03-19T23:17:41.731Z,86.07
2019-03-19T23:20:11.378Z,88.80
2019-03-19T23:22:40.650Z,85.07
2019-03-19T23:25:10.311Z,87.87
2019-03-19T23:27:39.517Z,84.90
2019-03-19T23:30:08.710Z,88.33
2019-03-19T23:32:37.875Z,87.77
2019-03-19T23:35:07.271Z,90.03
2019-03-19T23:37:36.497Z,89.27
2019-03-19T23:40:06.425Z,77.30
2019-03-19T23:42:35.603Z,79.17
2019-03-19T23:45:05.535Z,71.70
2019-03-19T23:47:34.686Z,66.63
2019-03-19T23:50:04.172Z,65.00
2019-03-19T23:52:33.413Z,57.80
2019-03-19T23:55:02.579Z,53.87
2019-03-19T23:57:31.845Z,50.50
